createdAt,value
2018-07-23T00:00:53.967Z,58.65
2018-07-23T00:01:53.962Z,58.55
2018-07-23T00:02:53.958Z,58.65
2018-07-23T00:03:53.956Z,58.45
2018-07-23T00:04:53.951Z,58.65
2018-07-23T00:05:53.946Z,58.55
2018-07-23T00:06:53.942Z,58.65
2018-07-23T00:07:53.937Z,58.55
2018-07-23T00:08:53.933Z,58.65
2018-07-23T00:09:53.928Z,58.65
2018-07-23T00:10:53.923Z,58.55
2018-07-23T00:11:53.919Z,58.74
2018-07-23T00:12:53.955Z,58.74
2018-07-23T00:13:53.912Z,58.74
2018-07-23T00:14:53.905Z,58.65
2018-07-23T00:15:53.904Z,58.55
2018-07-23T00:16:54.067Z,58.74
2018-07-23T00:17:53.895Z,58.55
2018-07-23T00:18:53.889Z,58.65
2018-07-23T00:19:53.886Z,58.74
2018-07-23T00:20:53.881Z,58.84
2018-07-23T00:21:53.879Z,58.55
2018-07-23T00:22:53.904Z,58.94
2018-07-23T00:23:53.912Z,58.84
2018-07-23T00:24:53.878Z,58.65
2018-07-23T00:25:53.859Z,58.74
2018-07-23T00:26:53.855Z,58.65
2018-07-23T00:27:53.852Z,58.84
2018-07-23T00:28:53.847Z,58.65
2018-07-23T00:29:53.844Z,58.65
2018-07-23T00:30:53.836Z,58.74
2018-07-23T00:31:53.834Z,58.65
2018-07-23T00:32:53.827Z,58.84
2018-07-23T00:33:53.827Z,58.84
2018-07-23T00:34:53.812Z,58.65
2018-07-23T00:35:53.954Z,58.55
2018-07-23T00:36:53.864Z,58.65
2018-07-23T00:37:53.807Z,58.74
2018-07-23T00:38:53.802Z,58.62
2018-07-23T00:39:53.797Z,58.84
2018-07-23T00:40:53.796Z,58.84
2018-07-23T00:41:53.790Z,58.65
2018-07-23T00:42:53.789Z,58.74
2018-07-23T00:43:53.781Z,58.52
2018-07-23T00:44:53.778Z,58.55
2018-07-23T00:45:53.773Z,58.52
2018-07-23T00:46:53.772Z,58.74
2018-07-23T00:47:53.761Z,58.72
2018-07-23T00:48:53.787Z,58.42
2018-07-23T00:49:53.777Z,58.65
2018-07-23T00:50:53.750Z,58.74
2018-07-23T00:51:53.742Z,58.74
2018-07-23T00:52:53.743Z,58.55
2018-07-23T00:53:53.739Z,58.33
2018-07-23T00:54:53.734Z,58.55
2018-07-23T00:55:53.730Z,58.45
2018-07-23T00:56:53.726Z,58.55
2018-07-23T00:57:53.721Z,58.94
2018-07-23T00:58:53.717Z,59.23
2018-07-23T00:59:53.711Z,58.74
2018-07-23T01:00:53.710Z,58.84
2018-07-23T01:01:53.704Z,58.72
2018-07-23T01:02:53.793Z,58.74
2018-07-23T01:03:53.726Z,58.91
2018-07-23T01:04:53.692Z,59.03
2018-07-23T01:05:53.687Z,59.00
2018-07-23T01:06:53.680Z,59.03
2018-07-23T01:07:53.676Z,58.84
2018-07-23T01:08:53.673Z,58.94
2018-07-23T01:09:53.669Z,58.84
2018-07-23T01:10:53.663Z,59.00
2018-07-23T01:11:53.660Z,59.20
2018-07-23T01:12:53.664Z,58.94
2018-07-23T01:13:53.651Z,59.00
2018-07-23T01:14:53.651Z,58.81
2018-07-23T01:15:53.642Z,59.00
2018-07-23T01:16:53.637Z,58.94
2018-07-23T01:17:53.635Z,59.10
2018-07-23T01:18:53.629Z,59.03
2018-07-23T01:19:54.376Z,58.91
2018-07-23T01:20:53.621Z,59.10
2018-07-23T01:21:53.751Z,58.94
2018-07-23T01:22:53.612Z,58.81
2018-07-23T01:23:53.608Z,58.91
2018-07-23T01:24:53.603Z,59.00
2018-07-23T01:25:53.600Z,59.10
2018-07-23T01:26:53.594Z,59.00
2018-07-23T01:27:53.590Z,59.10
2018-07-23T01:28:53.586Z,59.10
2018-07-23T01:29:53.580Z,59.39
2018-07-23T01:30:53.577Z,59.10
2018-07-23T01:31:53.572Z,59.39
2018-07-23T01:32:53.569Z,59.20
2018-07-23T01:33:53.564Z,59.39
2018-07-23T01:34:53.559Z,59.30
2018-07-23T01:35:53.555Z,59.49
2018-07-23T01:36:53.551Z,59.30
2018-07-23T01:37:53.546Z,59.30
2018-07-23T01:38:53.542Z,59.20
2018-07-23T01:39:53.537Z,59.30
2018-07-23T01:40:53.534Z,59.39
2018-07-23T01:41:53.531Z,59.20
2018-07-23T01:42:53.524Z,59.39
2018-07-23T01:43:53.520Z,59.39
2018-07-23T01:44:53.521Z,59.30
2018-07-23T01:45:53.513Z,59.30
2018-07-23T01:46:53.508Z,59.20
2018-07-23T01:47:53.506Z,59.20
2018-07-23T01:48:53.499Z,59.20
2018-07-23T01:49:53.494Z,59.20
2018-07-23T01:50:53.489Z,59.20
2018-07-23T01:51:53.486Z,59.30
2018-07-23T01:52:53.482Z,59.39
2018-07-23T01:53:53.478Z,59.20
2018-07-23T01:54:53.474Z,59.30
2018-07-23T01:55:53.470Z,59.30
2018-07-23T01:56:53.463Z,59.30
2018-07-23T01:57:53.460Z,59.30
2018-07-23T01:58:53.456Z,59.49
2018-07-23T01:59:53.452Z,59.49
2018-07-23T02:00:53.451Z,59.10
2018-07-23T02:01:53.443Z,59.49
2018-07-23T02:02:53.436Z,59.49
2018-07-23T02:03:53.459Z,59.00
2018-07-23T02:04:53.432Z,58.91
2018-07-23T02:05:53.426Z,58.91
2018-07-23T02:06:53.420Z,58.81
2018-07-23T02:07:53.419Z,58.72
2018-07-23T02:08:53.411Z,58.81
2018-07-23T02:09:53.408Z,59.00
2018-07-23T02:10:53.402Z,58.72
2018-07-23T02:11:53.398Z,59.00
2018-07-23T02:12:53.394Z,59.00
2018-07-23T02:13:53.390Z,59.00
2018-07-23T02:14:53.384Z,58.52
2018-07-23T02:15:53.381Z,58.42
2018-07-23T02:16:53.377Z,58.62
2018-07-23T02:17:53.374Z,58.52
2018-07-23T02:18:53.373Z,58.91
2018-07-23T02:19:53.366Z,58.91
2018-07-23T02:20:53.358Z,58.52
2018-07-23T02:21:53.354Z,58.62
2018-07-23T02:22:53.349Z,58.81
2018-07-23T02:23:53.345Z,58.42
2018-07-23T02:24:53.340Z,58.52
2018-07-23T02:25:53.336Z,58.62
2018-07-23T02:26:53.332Z,58.62
2018-07-23T02:27:53.329Z,58.62
2018-07-23T02:28:53.324Z,58.42
2018-07-23T02:29:53.318Z,58.62
2018-07-23T02:30:53.316Z,58.52
2018-07-23T02:31:53.317Z,58.72
2018-07-23T02:32:53.308Z,58.72
2018-07-23T02:33:53.302Z,58.52
2018-07-23T02:34:53.298Z,58.62
2018-07-23T02:35:53.294Z,58.52
2018-07-23T02:36:53.289Z,58.72
2018-07-23T02:37:53.285Z,58.62
2018-07-23T02:38:53.279Z,58.72
2018-07-23T02:39:53.275Z,58.72
2018-07-23T02:40:53.273Z,58.72
2018-07-23T02:41:53.267Z,58.62
2018-07-23T02:42:53.261Z,58.72
2018-07-23T02:43:53.258Z,58.72
2018-07-23T02:44:53.253Z,58.81
2018-07-23T02:45:53.250Z,58.81
2018-07-23T02:46:53.245Z,58.72
2018-07-23T02:47:53.241Z,58.72
2018-07-23T02:48:53.235Z,58.52
2018-07-23T02:49:53.236Z,58.91
2018-07-23T02:50:53.230Z,58.91
2018-07-23T02:51:53.223Z,58.81
2018-07-23T02:52:53.218Z,58.91
2018-07-23T02:53:53.214Z,58.91
2018-07-23T02:54:53.209Z,58.72
2018-07-23T02:55:53.205Z,58.62
2018-07-23T02:56:53.201Z,58.72
2018-07-23T02:57:53.196Z,58.72
2018-07-23T02:58:53.191Z,58.91
2018-07-23T02:59:53.187Z,58.62
2018-07-23T03:00:53.182Z,58.52
2018-07-23T03:01:53.178Z,58.33
2018-07-23T03:02:53.179Z,58.33
2018-07-23T03:03:53.173Z,58.59
2018-07-23T03:04:53.167Z,58.30
2018-07-23T03:05:53.161Z,58.30
2018-07-23T03:06:53.156Z,58.23
2018-07-23T03:07:53.150Z,58.52
2018-07-23T03:08:53.148Z,58.39
2018-07-23T03:09:53.144Z,58.39
2018-07-23T03:10:53.138Z,58.33
2018-07-23T03:11:53.136Z,58.20
2018-07-23T03:12:53.130Z,58.30
2018-07-23T03:13:53.127Z,58.42
2018-07-23T03:14:53.120Z,58.30
2018-07-23T03:15:53.115Z,58.11
2018-07-23T03:16:53.111Z,58.30
2018-07-23T03:17:53.107Z,58.30
2018-07-23T03:18:53.100Z,58.30
2018-07-23T03:19:53.100Z,58.30
2018-07-23T03:20:53.094Z,58.42
2018-07-23T03:21:53.196Z,58.49
2018-07-23T03:22:53.090Z,58.30
2018-07-23T03:23:53.080Z,58.39
2018-07-23T03:24:53.078Z,58.39
2018-07-23T03:25:53.077Z,58.30
2018-07-23T03:26:53.067Z,58.30
2018-07-23T03:27:53.063Z,58.39
2018-07-23T03:28:53.059Z,58.39
2018-07-23T03:29:53.055Z,58.39
2018-07-23T03:30:53.049Z,58.49
2018-07-23T03:31:53.045Z,58.39
2018-07-23T03:32:53.039Z,58.33
2018-07-23T03:33:53.036Z,58.49
2018-07-23T03:34:53.032Z,58.49
2018-07-23T03:35:53.028Z,58.30
2018-07-23T03:36:54.974Z,58.33
2018-07-23T03:37:53.018Z,58.59
2018-07-23T03:38:53.012Z,58.33
2018-07-23T03:39:53.008Z,58.20
2018-07-23T03:40:53.003Z,58.30
2018-07-23T03:41:53.001Z,58.59
2018-07-23T03:42:52.994Z,58.78
2018-07-23T03:43:52.989Z,58.59
2018-07-23T03:44:52.983Z,58.52
2018-07-23T03:45:52.980Z,58.59
2018-07-23T03:46:52.973Z,58.52
2018-07-23T03:47:52.970Z,58.72
2018-07-23T03:48:52.965Z,58.72
2018-07-23T03:49:52.960Z,59.00
2018-07-23T03:50:52.952Z,58.72
2018-07-23T03:51:52.948Z,58.23
2018-07-23T03:52:52.942Z,58.62
2018-07-23T03:53:52.938Z,58.52
2018-07-23T03:54:52.930Z,58.62
2018-07-23T03:55:52.925Z,58.52
2018-07-23T03:56:52.922Z,58.04
2018-07-23T03:57:52.914Z,57.94
2018-07-23T03:58:52.910Z,58.16
2018-07-23T03:59:52.902Z,58.14
2018-07-23T04:00:52.906Z,58.04
2018-07-23T04:01:52.893Z,57.94
2018-07-23T04:02:52.886Z,58.04
2018-07-23T04:03:52.880Z,58.06
2018-07-23T04:04:52.875Z,57.97
2018-07-23T04:05:52.873Z,58.23
2018-07-23T04:06:52.864Z,58.33
2018-07-23T04:07:52.859Z,58.14
2018-07-23T04:08:52.851Z,57.87
2018-07-23T04:09:52.851Z,58.14
2018-07-23T04:10:52.870Z,58.04
2018-07-23T04:11:52.835Z,58.04
2018-07-23T04:12:52.831Z,58.04
2018-07-23T04:13:52.823Z,58.14
2018-07-23T04:14:52.820Z,58.04
2018-07-23T04:15:52.813Z,57.97
2018-07-23T04:16:52.807Z,58.26
2018-07-23T04:17:52.804Z,57.65
2018-07-23T04:18:52.794Z,57.78
2018-07-23T04:19:52.788Z,57.78
2018-07-23T04:20:52.783Z,57.55
2018-07-23T04:21:52.778Z,57.78
2018-07-23T04:22:52.770Z,57.65
2018-07-23T04:23:52.766Z,57.45
2018-07-23T04:24:52.759Z,57.48
2018-07-23T04:25:52.752Z,57.68
2018-07-23T04:26:52.747Z,57.48
2018-07-23T04:27:52.742Z,57.39
2018-07-23T04:28:52.735Z,57.75
2018-07-23T04:29:52.729Z,57.65
2018-07-23T04:30:52.726Z,57.55
2018-07-23T04:31:52.717Z,57.78
2018-07-23T04:32:52.713Z,57.65
2018-07-23T04:33:52.707Z,57.65
2018-07-23T04:34:52.701Z,57.68
2018-07-23T04:35:52.693Z,57.78
2018-07-23T04:36:52.689Z,57.75
2018-07-23T04:37:52.730Z,57.78
2018-07-23T04:38:52.677Z,57.58
2018-07-23T04:39:52.669Z,57.58
2018-07-23T04:40:52.656Z,57.65
2018-07-23T04:41:52.659Z,57.55
2018-07-23T04:42:52.652Z,57.45
2018-07-23T04:43:52.645Z,57.55
2018-07-23T04:44:52.640Z,57.75
2018-07-23T04:45:52.633Z,57.45
2018-07-23T04:46:52.628Z,57.55
2018-07-23T04:47:52.625Z,57.55
2018-07-23T04:48:52.615Z,57.58
2018-07-23T04:49:52.613Z,57.55
2018-07-23T04:50:52.605Z,57.58
2018-07-23T04:51:52.602Z,57.55
2018-07-23T04:52:52.592Z,57.75
2018-07-23T04:53:52.586Z,57.68
2018-07-23T04:54:52.592Z,57.65
2018-07-23T04:55:52.575Z,57.48
2018-07-23T04:56:52.719Z,57.55
2018-07-23T04:57:52.562Z,57.65
2018-07-23T04:58:52.556Z,57.75
2018-07-23T04:59:52.552Z,57.65
2018-07-23T05:00:52.546Z,57.45
2018-07-23T05:01:52.539Z,57.75
2018-07-23T05:02:52.531Z,57.55
2018-07-23T05:03:52.526Z,57.55
2018-07-23T05:04:52.522Z,57.65
2018-07-23T05:05:52.516Z,57.65
2018-07-23T05:06:52.507Z,57.55
2018-07-23T05:07:52.503Z,57.45
2018-07-23T05:08:52.497Z,57.75
2018-07-23T05:09:52.491Z,57.55
2018-07-23T05:10:52.487Z,57.45
2018-07-23T05:11:52.477Z,57.55
2018-07-23T05:12:52.471Z,57.55
2018-07-23T05:13:52.467Z,57.65
2018-07-23T05:14:52.462Z,57.55
2018-07-23T05:15:52.478Z,57.55
2018-07-23T05:16:52.449Z,57.65
2018-07-23T05:17:52.442Z,57.84
2018-07-23T05:18:52.436Z,57.84
2018-07-23T05:19:52.429Z,57.75
2018-07-23T05:20:52.427Z,57.75
2018-07-23T05:21:52.421Z,57.65
2018-07-23T05:22:52.413Z,57.75
2018-07-23T05:23:52.441Z,57.84
2018-07-23T05:24:52.400Z,57.84
2018-07-23T05:25:52.395Z,58.04
2018-07-23T05:26:52.389Z,57.55
2018-07-23T05:27:52.383Z,57.65
2018-07-23T05:28:52.376Z,58.04
2018-07-23T05:29:52.371Z,57.75
2018-07-23T05:30:52.364Z,57.84
2018-07-23T05:31:52.423Z,58.04
2018-07-23T05:32:52.353Z,58.04
2018-07-23T05:33:52.348Z,58.04
2018-07-23T05:34:52.341Z,58.04
2018-07-23T05:35:52.334Z,57.94
2018-07-23T05:36:52.330Z,58.04
2018-07-23T05:37:52.323Z,58.04
2018-07-23T05:38:52.316Z,57.94
2018-07-23T05:39:52.312Z,58.04
2018-07-23T05:40:52.305Z,57.94
2018-07-23T05:41:52.300Z,58.04
2018-07-23T05:42:52.292Z,58.04
2018-07-23T05:43:52.295Z,57.94
2018-07-23T05:44:52.280Z,57.94
2018-07-23T05:45:52.274Z,57.94
2018-07-23T05:46:52.266Z,58.04
2018-07-23T05:47:52.263Z,58.04
2018-07-23T05:48:52.256Z,58.23
2018-07-23T05:49:52.251Z,57.94
2018-07-23T05:50:52.245Z,58.14
2018-07-23T05:51:52.237Z,58.04
2018-07-23T05:52:52.230Z,58.04
2018-07-23T05:53:52.225Z,58.04
2018-07-23T05:54:52.221Z,58.04
2018-07-23T05:55:52.223Z,57.75
2018-07-23T05:56:52.208Z,57.65
2018-07-23T05:57:52.202Z,58.14
2018-07-23T05:58:52.233Z,58.04
2018-07-23T05:59:52.191Z,58.14
2018-07-23T06:00:52.185Z,57.75
2018-07-23T06:01:52.178Z,57.75
2018-07-23T06:02:52.172Z,58.04
2018-07-23T06:03:52.166Z,58.04
2018-07-23T06:04:52.160Z,57.78
2018-07-23T06:05:52.155Z,57.75
2018-07-23T06:06:52.244Z,57.65
2018-07-23T06:07:52.142Z,57.84
2018-07-23T06:08:52.137Z,57.75
2018-07-23T06:09:52.130Z,57.65
2018-07-23T06:10:52.124Z,57.78
2018-07-23T06:11:52.118Z,57.87
2018-07-23T06:12:52.114Z,57.87
2018-07-23T06:13:52.114Z,57.78
2018-07-23T06:14:52.103Z,57.65
2018-07-23T06:15:52.094Z,57.97
2018-07-23T06:16:52.089Z,57.68
2018-07-23T06:17:52.086Z,57.55
2018-07-23T06:18:52.079Z,57.58
2018-07-23T06:19:52.070Z,57.58
2018-07-23T06:20:52.065Z,57.68
2018-07-23T06:21:52.059Z,57.65
2018-07-23T06:22:52.055Z,57.58
2018-07-23T06:23:52.049Z,57.55
2018-07-23T06:24:52.041Z,57.58
2018-07-23T06:25:52.078Z,57.68
2018-07-23T06:26:52.075Z,57.48
2018-07-23T06:27:52.023Z,57.45
2018-07-23T06:28:52.018Z,57.68
2018-07-23T06:29:52.015Z,57.78
2018-07-23T06:30:52.014Z,57.78
2018-07-23T06:31:51.999Z,57.58
2018-07-23T06:32:51.994Z,57.78
2018-07-23T06:33:51.997Z,57.97
2018-07-23T06:34:51.984Z,57.87
2018-07-23T06:35:51.976Z,57.87
2018-07-23T06:36:51.970Z,57.87
2018-07-23T06:37:51.966Z,58.06
2018-07-23T06:38:51.961Z,57.78
2018-07-23T06:39:51.954Z,57.94
2018-07-23T06:40:51.951Z,57.29
2018-07-23T06:41:51.939Z,57.39
2018-07-23T06:42:51.941Z,57.00
2018-07-23T06:43:51.928Z,56.90
2018-07-23T06:44:51.923Z,57.19
2018-07-23T06:45:51.921Z,57.39
2018-07-23T06:46:51.910Z,57.29
2018-07-23T06:47:51.904Z,57.29
2018-07-23T06:48:51.899Z,57.09
2018-07-23T06:49:51.893Z,57.00
2018-07-23T06:50:51.886Z,57.00
2018-07-23T06:51:51.882Z,57.19
2018-07-23T06:52:51.875Z,57.00
2018-07-23T06:53:51.869Z,57.09
2018-07-23T06:54:51.864Z,57.00
2018-07-23T06:55:51.858Z,57.00
2018-07-23T06:56:51.852Z,56.71
2018-07-23T06:57:51.847Z,56.71
2018-07-23T06:58:51.844Z,56.90
2018-07-23T06:59:51.834Z,56.71
2018-07-23T07:00:51.828Z,56.61
2018-07-23T07:01:51.816Z,57.03
2018-07-23T07:02:51.818Z,56.71
2018-07-23T07:03:51.811Z,56.81
2018-07-23T07:04:51.808Z,56.71
2018-07-23T07:05:51.800Z,56.71
2018-07-23T07:06:51.794Z,56.61
2018-07-23T07:07:51.789Z,56.71
2018-07-23T07:08:51.783Z,56.41
2018-07-23T07:09:51.777Z,56.51
2018-07-23T07:10:51.782Z,56.15
2018-07-23T07:11:51.808Z,56.45
2018-07-23T07:12:51.785Z,56.45
2018-07-23T07:13:51.754Z,56.35
2018-07-23T07:14:51.747Z,56.54
2018-07-23T07:15:51.747Z,56.54
2018-07-23T07:16:51.736Z,56.64
2018-07-23T07:17:51.730Z,56.64
2018-07-23T07:18:51.725Z,56.54
2018-07-23T07:19:51.727Z,56.35
2018-07-23T07:20:51.714Z,56.64
2018-07-23T07:21:51.708Z,56.54
2018-07-23T07:22:51.718Z,56.25
2018-07-23T07:23:51.698Z,56.15
2018-07-23T07:24:51.695Z,56.35
2018-07-23T07:25:51.685Z,55.96
2018-07-23T07:26:51.678Z,55.77
2018-07-23T07:27:51.674Z,56.05
2018-07-23T07:28:51.668Z,55.96
2018-07-23T07:29:51.662Z,55.96
2018-07-23T07:30:51.655Z,56.15
2018-07-23T07:31:51.650Z,55.96
2018-07-23T07:32:51.645Z,55.79
2018-07-23T07:33:51.640Z,55.96
2018-07-23T07:34:51.645Z,55.77
2018-07-23T07:35:51.628Z,55.87
2018-07-23T07:36:51.624Z,55.77
2018-07-23T07:37:51.647Z,55.67
2018-07-23T07:38:51.610Z,55.89
2018-07-23T07:39:51.604Z,55.99
2018-07-23T07:40:51.600Z,55.99
2018-07-23T07:41:51.594Z,55.99
2018-07-23T07:42:51.589Z,55.89
2018-07-23T07:43:51.586Z,55.99
2018-07-23T07:44:51.576Z,56.09
2018-07-23T07:45:51.571Z,56.28
2018-07-23T07:46:51.569Z,56.09
2018-07-23T07:47:51.559Z,56.28
2018-07-23T07:48:51.555Z,55.50
2018-07-23T07:49:51.549Z,56.28
2018-07-23T07:50:51.542Z,55.50
2018-07-23T07:51:51.541Z,55.60
2018-07-23T07:52:51.532Z,55.69
2018-07-23T07:53:51.527Z,55.60
2018-07-23T07:54:51.521Z,55.60
2018-07-23T07:55:51.515Z,55.99
2018-07-23T07:56:51.512Z,55.60
2018-07-23T07:57:51.504Z,55.89
2018-07-23T07:58:51.523Z,55.60
2018-07-23T07:59:51.492Z,55.50
2018-07-23T08:00:51.487Z,55.60
2018-07-23T08:01:51.486Z,55.31
2018-07-23T08:02:51.478Z,55.69
2018-07-23T08:03:51.472Z,55.50
2018-07-23T08:04:51.465Z,54.92
2018-07-23T08:05:51.460Z,55.24
2018-07-23T08:06:51.455Z,55.11
2018-07-23T08:07:51.450Z,55.04
2018-07-23T08:08:51.444Z,55.24
2018-07-23T08:09:51.438Z,55.04
2018-07-23T08:10:51.434Z,55.24
2018-07-23T08:11:51.428Z,55.33
2018-07-23T08:12:51.424Z,54.75
2018-07-23T08:13:51.417Z,54.94
2018-07-23T08:14:51.424Z,54.66
2018-07-23T08:15:51.457Z,54.46
2018-07-23T08:16:51.401Z,54.36
2018-07-23T08:17:51.420Z,54.39
2018-07-23T08:18:51.389Z,54.46
2018-07-23T08:19:51.384Z,54.17
2018-07-23T08:20:51.378Z,54.36
2018-07-23T08:21:51.376Z,54.29
2018-07-23T08:22:51.367Z,54.29
2018-07-23T08:23:51.364Z,54.10
2018-07-23T08:24:51.360Z,54.39
2018-07-23T08:25:51.353Z,54.39
2018-07-23T08:26:51.347Z,54.10
2018-07-23T08:27:51.370Z,54.10
2018-07-23T08:28:51.338Z,54.20
2018-07-23T08:29:51.332Z,54.00
2018-07-23T08:30:51.326Z,53.71
2018-07-23T08:31:51.409Z,53.91
2018-07-23T08:32:51.315Z,54.00
2018-07-23T08:33:51.312Z,53.91
2018-07-23T08:34:51.306Z,53.91
2018-07-23T08:35:51.300Z,53.81
2018-07-23T08:36:51.296Z,53.52
2018-07-23T08:37:51.291Z,53.54
2018-07-23T08:38:51.285Z,53.64
2018-07-23T08:39:51.281Z,53.45
2018-07-23T08:40:51.298Z,53.64
2018-07-23T08:41:51.271Z,53.45
2018-07-23T08:42:51.265Z,53.25
2018-07-23T08:43:51.263Z,53.16
2018-07-23T08:44:51.301Z,53.16
2018-07-23T08:45:51.250Z,53.35
2018-07-23T08:46:51.244Z,53.25
2018-07-23T08:47:51.241Z,53.64
2018-07-23T08:48:51.234Z,53.54
2018-07-23T08:49:51.230Z,53.16
2018-07-23T08:50:51.223Z,52.96
2018-07-23T08:51:51.218Z,53.06
2018-07-23T08:52:51.217Z,52.86
2018-07-23T08:53:51.208Z,53.06
2018-07-23T08:54:51.205Z,53.18
2018-07-23T08:55:51.200Z,53.08
2018-07-23T08:56:51.199Z,52.40
2018-07-23T08:57:51.192Z,52.59
2018-07-23T08:58:51.185Z,52.69
2018-07-23T08:59:51.181Z,52.69
2018-07-23T09:00:51.174Z,52.50
2018-07-23T09:01:51.173Z,52.89
2018-07-23T09:02:51.167Z,52.69
2018-07-23T09:03:51.250Z,52.50
2018-07-23T09:04:51.159Z,52.89
2018-07-23T09:05:51.151Z,52.79
2018-07-23T09:06:51.147Z,52.69
2018-07-23T09:07:51.142Z,52.69
2018-07-23T09:08:51.201Z,52.40
2018-07-23T09:09:51.136Z,52.40
2018-07-23T09:10:51.127Z,52.50
2018-07-23T09:11:51.125Z,52.50
2018-07-23T09:12:51.118Z,52.50
2018-07-23T09:13:51.113Z,52.59
2018-07-23T09:14:51.111Z,52.62
2018-07-23T09:15:51.104Z,52.72
2018-07-23T09:16:51.099Z,52.14
2018-07-23T09:17:51.097Z,52.23
2018-07-23T09:18:51.090Z,52.33
2018-07-23T09:19:51.123Z,52.04
2018-07-23T09:20:51.080Z,51.94
2018-07-23T09:21:51.076Z,51.94
2018-07-23T09:22:51.071Z,51.94
2018-07-23T09:23:51.117Z,52.04
2018-07-23T09:24:51.063Z,51.94
2018-07-23T09:25:51.057Z,52.04
2018-07-23T09:26:51.051Z,51.84
2018-07-23T09:27:51.049Z,51.65
2018-07-23T09:28:51.043Z,51.65
2018-07-23T09:29:51.038Z,52.04
2018-07-23T09:30:51.034Z,51.94
2018-07-23T09:31:51.029Z,51.45
2018-07-23T09:32:51.024Z,51.55
2018-07-23T09:33:51.024Z,51.55
2018-07-23T09:34:51.016Z,51.84
2018-07-23T09:35:51.017Z,51.65
2018-07-23T09:36:51.007Z,51.75
2018-07-23T09:37:51.003Z,51.94
2018-07-23T09:38:50.995Z,51.77
2018-07-23T09:39:50.992Z,51.65
2018-07-23T09:40:50.989Z,51.55
2018-07-23T09:41:50.985Z,51.39
2018-07-23T09:42:50.979Z,51.29
2018-07-23T09:43:50.973Z,51.29
2018-07-23T09:44:50.970Z,51.36
2018-07-23T09:45:50.969Z,51.39
2018-07-23T09:46:50.960Z,51.65
2018-07-23T09:47:50.956Z,51.45
2018-07-23T09:48:50.952Z,51.36
2018-07-23T09:49:50.949Z,51.55
2018-07-23T09:50:50.942Z,51.36
2018-07-23T09:51:50.939Z,51.26
2018-07-23T09:52:50.935Z,51.48
2018-07-23T09:53:50.931Z,51.17
2018-07-23T09:54:50.927Z,51.19
2018-07-23T09:55:50.922Z,51.09
2018-07-23T09:56:50.917Z,51.19
2018-07-23T09:57:50.913Z,50.99
2018-07-23T09:58:50.909Z,51.29
2018-07-23T09:59:50.903Z,51.39
2018-07-23T10:00:50.900Z,51.39
2018-07-23T10:01:50.900Z,50.90
2018-07-23T10:02:50.889Z,50.80
2018-07-23T10:03:50.888Z,50.80
2018-07-23T10:04:50.881Z,50.70
2018-07-23T10:05:50.877Z,50.90
2018-07-23T10:06:50.876Z,50.99
2018-07-23T10:07:50.868Z,50.90
2018-07-23T10:08:50.863Z,50.70
2018-07-23T10:09:50.859Z,50.80
2018-07-23T10:10:50.872Z,50.70
2018-07-23T10:11:50.851Z,50.90
2018-07-23T10:12:50.847Z,50.90
2018-07-23T10:13:50.843Z,51.21
2018-07-23T10:14:50.837Z,51.21
2018-07-23T10:15:50.836Z,51.02
2018-07-23T10:16:50.828Z,51.02
2018-07-23T10:17:50.830Z,50.63
2018-07-23T10:18:50.822Z,50.63
2018-07-23T10:19:50.817Z,50.73
2018-07-23T10:20:50.811Z,50.24
2018-07-23T10:21:50.808Z,50.24
2018-07-23T10:22:50.804Z,50.34
2018-07-23T10:23:50.800Z,50.34
2018-07-23T10:24:50.799Z,50.24
2018-07-23T10:25:50.792Z,50.14
2018-07-23T10:26:50.785Z,50.34
2018-07-23T10:27:50.782Z,50.34
2018-07-23T10:28:50.779Z,50.24
2018-07-23T10:29:50.774Z,50.24
2018-07-23T10:30:50.770Z,50.04
2018-07-23T10:31:50.768Z,50.24
2018-07-23T10:32:50.761Z,50.34
2018-07-23T10:33:50.759Z,50.43
2018-07-23T10:34:50.752Z,50.34
2018-07-23T10:35:50.756Z,50.24
2018-07-23T10:36:50.745Z,50.14
2018-07-23T10:37:50.741Z,50.43
2018-07-23T10:38:50.739Z,50.04
2018-07-23T10:39:50.733Z,50.04
2018-07-23T10:40:50.731Z,50.04
2018-07-23T10:41:50.724Z,50.24
2018-07-23T10:42:50.721Z,50.34
2018-07-23T10:43:50.718Z,50.24
2018-07-23T10:44:50.715Z,50.24
2018-07-23T10:45:50.707Z,50.34
2018-07-23T10:46:50.704Z,50.14
2018-07-23T10:47:50.700Z,49.97
2018-07-23T10:48:50.723Z,50.14
2018-07-23T10:49:50.694Z,49.97
2018-07-23T10:50:50.710Z,50.14
2018-07-23T10:51:50.684Z,49.85
2018-07-23T10:52:50.681Z,49.85
2018-07-23T10:53:50.676Z,50.04
2018-07-23T10:54:50.670Z,49.46
2018-07-23T10:55:50.668Z,49.76
2018-07-23T10:56:50.666Z,49.68
2018-07-23T10:57:50.660Z,49.58
2018-07-23T10:58:50.656Z,49.68
2018-07-23T10:59:50.651Z,49.49
2018-07-23T11:00:50.648Z,49.78
2018-07-23T11:01:50.643Z,49.58
2018-07-23T11:02:50.639Z,49.85
2018-07-23T11:03:50.634Z,49.95
2018-07-23T11:04:50.632Z,50.34
2018-07-23T11:05:50.627Z,50.04
2018-07-23T11:06:50.623Z,50.24
2018-07-23T11:07:50.618Z,50.14
2018-07-23T11:08:50.615Z,50.34
2018-07-23T11:09:50.611Z,50.53
2018-07-23T11:10:50.610Z,50.21
2018-07-23T11:11:50.602Z,50.70
2018-07-23T11:12:50.655Z,51.19
2018-07-23T11:13:50.595Z,51.09
2018-07-23T11:14:50.590Z,50.99
2018-07-23T11:15:50.588Z,51.09
2018-07-23T11:16:50.582Z,50.99
2018-07-23T11:17:50.580Z,50.70
2018-07-23T11:18:50.574Z,50.34
2018-07-23T11:19:50.572Z,50.24
2018-07-23T11:20:50.565Z,50.34
2018-07-23T11:21:50.563Z,50.24
2018-07-23T11:22:50.558Z,50.14
2018-07-23T11:23:50.555Z,50.43
2018-07-23T11:24:50.605Z,50.24
2018-07-23T11:25:50.544Z,50.24
2018-07-23T11:26:50.539Z,50.34
2018-07-23T11:27:50.537Z,50.24
2018-07-23T11:28:50.535Z,50.34
2018-07-23T11:29:50.528Z,50.14
2018-07-23T11:30:50.524Z,50.04
2018-07-23T11:31:50.521Z,50.14
2018-07-23T11:32:50.515Z,49.85
2018-07-23T11:33:50.513Z,50.14
2018-07-23T11:34:50.508Z,50.14
2018-07-23T11:35:50.503Z,49.85
2018-07-23T11:36:50.503Z,49.58
2018-07-23T11:37:50.499Z,49.88
2018-07-23T11:38:50.496Z,50.04
2018-07-23T11:39:50.489Z,49.78
2018-07-23T11:40:50.482Z,49.78
2018-07-23T11:41:50.481Z,49.76
2018-07-23T11:42:50.495Z,49.56
2018-07-23T11:43:50.470Z,49.68
2018-07-23T11:44:50.478Z,49.66
2018-07-23T11:45:50.463Z,49.68
2018-07-23T11:46:50.462Z,49.68
2018-07-23T11:47:50.455Z,49.56
2018-07-23T11:48:50.453Z,49.68
2018-07-23T11:49:50.444Z,49.85
2018-07-23T11:50:50.510Z,49.58
2018-07-23T11:51:50.438Z,49.58
2018-07-23T11:52:50.439Z,49.56
2018-07-23T11:53:50.434Z,49.88
2018-07-23T11:54:50.430Z,49.58
2018-07-23T11:55:50.422Z,49.58
2018-07-23T11:56:50.450Z,49.49
2018-07-23T11:57:50.416Z,49.76
2018-07-23T11:58:50.406Z,49.85
2018-07-23T11:59:50.407Z,50.04
2018-07-23T12:00:50.404Z,50.53
2018-07-23T12:01:50.433Z,50.34
2018-07-23T12:02:50.395Z,50.04
2018-07-23T12:03:50.391Z,50.14
2018-07-23T12:04:50.387Z,50.14
2018-07-23T12:05:50.385Z,50.43
2018-07-23T12:06:50.379Z,50.24
2018-07-23T12:07:50.378Z,50.34
2018-07-23T12:08:50.372Z,50.24
2018-07-23T12:09:50.367Z,50.24
2018-07-23T12:10:50.362Z,50.43
2018-07-23T12:11:50.395Z,50.34
2018-07-23T12:12:50.356Z,50.51
2018-07-23T12:13:50.352Z,50.24
2018-07-23T12:14:50.347Z,50.43
2018-07-23T12:15:50.344Z,50.14
2018-07-23T12:16:50.341Z,50.24
2018-07-23T12:17:50.342Z,50.34
2018-07-23T12:18:50.409Z,50.24
2018-07-23T12:19:50.328Z,50.14
2018-07-23T12:20:50.323Z,50.24
2018-07-23T12:21:50.320Z,50.04
2018-07-23T12:22:50.313Z,50.43
2018-07-23T12:23:50.310Z,50.43
2018-07-23T12:24:50.308Z,50.43
2018-07-23T12:25:50.305Z,50.43
2018-07-23T12:26:50.299Z,50.43
2018-07-23T12:27:50.294Z,50.34
2018-07-23T12:28:50.307Z,50.53
2018-07-23T12:29:50.285Z,50.24
2018-07-23T12:30:50.285Z,50.43
2018-07-23T12:31:50.277Z,50.34
2018-07-23T12:32:50.281Z,50.14
2018-07-23T12:33:50.269Z,50.14
2018-07-23T12:34:50.265Z,50.24
2018-07-23T12:35:50.261Z,50.24
2018-07-23T12:36:50.283Z,50.24
2018-07-23T12:37:50.281Z,50.24
2018-07-23T12:38:50.247Z,50.04
2018-07-23T12:39:50.297Z,50.14
2018-07-23T12:40:50.240Z,50.14
2018-07-23T12:41:50.235Z,50.04
2018-07-23T12:42:50.233Z,50.24
2018-07-23T12:43:50.233Z,50.14
2018-07-23T12:44:50.231Z,50.24
2018-07-23T12:45:50.249Z,50.34
2018-07-23T12:46:50.225Z,50.14
2018-07-23T12:47:50.211Z,50.24
2018-07-23T12:48:50.213Z,50.34
2018-07-23T12:49:50.203Z,50.24
2018-07-23T12:50:50.202Z,50.24
2018-07-23T12:51:50.196Z,50.34
2018-07-23T12:52:50.191Z,50.04